createdAt,value
2023-04-22T00:01:51.455Z,1.30
2023-04-22T00:04:21.838Z,0.90
2023-04-22T00:06:50.543Z,0.80
2023-04-22T00:09:18.886Z,1.00
2023-04-22T00:11:47.187Z,1.10
2023-04-22T00:14:15.482Z,0.67
2023-04-22T00:16:43.933Z,1.20
2023-04-22T00:19:12.815Z,0.70
2023-04-22T00:21:42.556Z,1.40
2023-04-22T00:24:10.779Z,1.20
2023-04-22T00:26:39.201Z,1.10
2023-04-22T00:29:07.513Z,0.87
2023-04-22T00:31:35.996Z,1.00
2023-04-22T00:34:04.452Z,0.80
2023-04-22T00:36:32.869Z,1.20
2023-04-22T00:39:02.678Z,0.80
2023-04-22T00:41:31.844Z,1.00
2023-04-22T00:44:01.874Z,0.73
2023-04-22T00:46:30.717Z,1.00
2023-04-22T00:48:59.744Z,1.13
2023-04-22T00:51:28.114Z,1.40
2023-04-22T00:53:56.526Z,1.30
2023-04-22T00:56:27.671Z,0.93
2023-04-22T00:58:56.611Z,1.57
2023-04-22T01:01:26.005Z,0.70
2023-04-22T01:03:54.817Z,0.70
2023-04-22T01:06:25.494Z,1.03
2023-04-22T01:08:53.853Z,1.13
2023-04-22T01:11:23.442Z,0.80
2023-04-22T01:13:53.478Z,1.37
2023-04-22T01:16:22.848Z,3.10
2023-04-22T01:18:51.191Z,1.07
2023-04-22T01:21:19.965Z,1.47
2023-04-22T01:23:49.936Z,1.03
2023-04-22T01:26:18.324Z,0.70
2023-04-22T01:28:46.962Z,0.87
2023-04-22T01:31:15.230Z,1.17
2023-04-22T01:33:44.392Z,1.67
2023-04-22T01:36:13.418Z,1.00
2023-04-22T01:38:42.174Z,1.17
2023-04-22T01:41:12.005Z,0.87
2023-04-22T01:43:40.921Z,0.90
2023-04-22T01:46:09.758Z,1.10
2023-04-22T01:48:38.592Z,1.07
2023-04-22T01:51:06.891Z,1.10
2023-04-22T01:53:35.220Z,2.10
2023-04-22T01:56:03.782Z,1.30
2023-04-22T01:58:35.817Z,1.00
2023-04-22T02:01:04.170Z,0.73
2023-04-22T02:03:32.630Z,1.77
2023-04-22T02:06:01.110Z,2.10
2023-04-22T02:08:29.537Z,1.47
2023-04-22T02:10:58.336Z,1.33
2023-04-22T02:13:26.757Z,1.10
2023-04-22T02:15:56.518Z,1.00
2023-04-22T02:18:24.810Z,1.60
2023-04-22T02:20:53.124Z,1.60
2023-04-22T02:23:21.786Z,1.47
2023-04-22T02:25:52.008Z,1.27
2023-04-22T02:28:20.421Z,1.00
2023-04-22T02:30:48.709Z,1.40
2023-04-22T02:33:18.511Z,1.57
2023-04-22T02:35:47.296Z,1.10
2023-04-22T02:38:15.785Z,1.73
2023-04-22T02:40:44.202Z,1.00
2023-04-22T02:43:12.557Z,1.90
2023-04-22T02:45:41.560Z,1.10
2023-04-22T02:48:10.050Z,1.73
2023-04-22T02:50:39.937Z,1.73
2023-04-22T02:53:09.220Z,1.43
2023-04-22T02:55:37.830Z,1.40
2023-04-22T02:58:06.623Z,1.50
2023-04-22T03:00:35.045Z,1.70
2023-04-22T03:03:03.618Z,2.03
2023-04-22T03:05:32.195Z,2.07
2023-04-22T03:08:01.872Z,1.60
2023-04-22T03:10:30.256Z,1.20
2023-04-22T03:12:58.594Z,1.43
2023-04-22T03:15:26.868Z,1.30
2023-04-22T03:17:55.257Z,1.37
2023-04-22T03:20:23.695Z,1.63
2023-04-22T03:22:52.019Z,2.30
2023-04-22T03:25:21.851Z,2.80
2023-04-22T03:27:50.130Z,2.30
2023-04-22T03:30:18.481Z,1.27
2023-04-22T03:32:46.746Z,2.37
2023-04-22T03:35:15.204Z,1.60
2023-04-22T03:37:43.520Z,2.57
2023-04-22T03:40:13.667Z,1.53
2023-04-22T03:42:43.772Z,1.83
2023-04-22T03:45:12.655Z,2.10
2023-04-22T03:47:41.178Z,2.10
2023-04-22T03:50:10.125Z,1.20
2023-04-22T03:52:38.413Z,1.73
2023-04-22T03:55:07.537Z,2.03
2023-04-22T03:57:35.918Z,2.43
2023-04-22T04:00:06.658Z,2.57
2023-04-22T04:02:35.176Z,1.53
2023-04-22T04:05:03.717Z,3.10
2023-04-22T04:07:32.409Z,1.90
2023-04-22T04:10:00.681Z,2.23
2023-04-22T04:12:29.025Z,2.73
2023-04-22T04:14:57.305Z,2.30
2023-04-22T04:17:28.966Z,1.60
2023-04-22T04:19:57.362Z,1.93
2023-04-22T04:22:25.817Z,1.70
2023-04-22T04:24:55.994Z,1.73
2023-04-22T04:27:24.820Z,2.03
2023-04-22T04:29:53.084Z,1.83
2023-04-22T04:32:21.914Z,1.90
2023-04-22T04:34:52.775Z,1.60
2023-04-22T04:37:22.457Z,2.13
2023-04-22T04:39:50.785Z,2.17
2023-04-22T04:42:19.975Z,1.43
2023-04-22T04:44:48.742Z,2.17
2023-04-22T04:47:17.090Z,2.73
2023-04-22T04:49:45.929Z,2.30
2023-04-22T04:52:15.632Z,2.40
2023-04-22T04:54:44.005Z,2.73
2023-04-22T04:57:12.306Z,2.77
2023-04-22T04:59:40.914Z,2.63
2023-04-22T05:02:09.872Z,2.70
2023-04-22T05:04:38.502Z,2.37
2023-04-22T05:07:06.978Z,2.00
2023-04-22T05:09:37.863Z,2.27
2023-04-22T05:12:06.780Z,2.33
2023-04-22T05:14:35.034Z,2.47
2023-04-22T05:19:45.652Z,2.77
2023-04-22T05:22:13.966Z,2.97
2023-04-22T05:24:43.718Z,2.20
2023-04-22T05:27:12.160Z,2.27
2023-04-22T05:29:40.853Z,2.07
2023-04-22T05:32:09.734Z,2.10
2023-04-22T05:34:38.020Z,2.30
2023-04-22T05:37:06.410Z,2.50
2023-04-22T05:39:34.817Z,2.70
2023-04-22T05:42:04.700Z,1.97
2023-04-22T05:44:33.047Z,1.73
2023-04-22T05:47:01.335Z,2.23
2023-04-22T05:49:29.659Z,1.97
2023-04-22T05:51:57.955Z,2.43
2023-04-22T05:54:26.332Z,2.70
2023-04-22T05:56:54.694Z,2.63
2023-04-22T05:59:24.443Z,1.57
2023-04-22T06:01:52.765Z,3.13
2023-04-22T06:04:21.641Z,1.50
2023-04-22T06:06:51.137Z,1.70
2023-04-22T06:09:19.421Z,1.70
2023-04-22T06:11:47.808Z,1.73
2023-04-22T06:14:16.366Z,2.47
2023-04-22T06:16:46.158Z,1.90
2023-04-22T06:19:14.512Z,2.10
2023-04-22T06:21:43.477Z,1.80
2023-04-22T06:24:11.760Z,2.80
2023-04-22T06:26:40.088Z,1.63
2023-04-22T06:29:08.452Z,1.57
2023-04-22T06:31:36.864Z,1.10
2023-04-22T06:34:06.577Z,1.40
2023-04-22T06:36:37.600Z,1.90
2023-04-22T06:39:06.524Z,2.63
2023-04-22T06:41:34.832Z,1.47
2023-04-22T06:44:03.132Z,1.50
2023-04-22T06:46:31.491Z,2.13
2023-04-22T06:48:59.878Z,1.73
2023-04-22T06:51:29.551Z,1.40
2023-04-22T06:53:58.416Z,2.00
2023-04-22T06:56:26.909Z,1.70
2023-04-22T06:58:56.585Z,1.93
2023-04-22T07:01:24.974Z,1.60
2023-04-22T07:03:53.435Z,2.00
2023-04-22T07:06:21.855Z,1.30
2023-04-22T07:08:51.903Z,1.37
2023-04-22T07:11:20.258Z,1.40
2023-04-22T07:13:48.610Z,2.03
2023-04-22T07:16:17.006Z,1.10
2023-04-22T07:18:45.401Z,1.17
2023-04-22T07:21:13.704Z,1.23
2023-04-22T07:23:42.000Z,1.50
2023-04-22T07:26:11.723Z,1.00
2023-04-22T07:28:40.109Z,1.37
2023-04-22T07:31:08.416Z,1.30
2023-04-22T07:33:36.706Z,2.27
2023-04-22T07:36:05.462Z,1.47
2023-04-22T07:38:33.834Z,1.40
2023-04-22T07:41:02.144Z,1.10
2023-04-22T07:43:31.983Z,1.10
2023-04-22T07:46:00.542Z,0.90
2023-04-22T07:48:28.970Z,1.03
2023-04-22T07:50:57.344Z,0.90
2023-04-22T07:53:25.820Z,0.85
2023-04-22T07:55:54.236Z,1.17
2023-04-22T07:58:32.986Z,1.27
2023-04-22T08:01:01.376Z,0.67
2023-04-22T08:03:29.847Z,1.03
2023-04-22T08:05:58.698Z,1.00
2023-04-22T08:08:28.237Z,1.20
2023-04-22T08:10:56.512Z,0.93
2023-04-22T08:13:24.837Z,1.10
2023-04-22T08:15:57.661Z,0.60
2023-04-22T08:18:26.009Z,1.17
2023-04-22T08:20:54.333Z,1.73
2023-04-22T08:23:22.844Z,1.17
2023-04-22T08:25:51.966Z,0.67
2023-04-22T08:28:20.273Z,1.00
2023-04-22T08:30:48.614Z,1.80
2023-04-22T08:33:18.722Z,0.83
2023-04-22T08:35:47.188Z,0.80
2023-04-22T08:38:15.749Z,0.82
2023-04-22T08:40:44.221Z,0.82
2023-04-22T08:43:13.484Z,1.63
2023-04-22T08:45:42.449Z,0.77
2023-04-22T08:48:11.454Z,0.80
2023-04-22T08:50:41.197Z,1.13
2023-04-22T08:53:09.539Z,1.10
2023-04-22T08:55:38.177Z,1.00
2023-04-22T08:58:06.814Z,1.30
2023-04-22T09:00:35.891Z,0.82
2023-04-22T09:03:07.176Z,0.95
2023-04-22T09:05:38.173Z,1.00
2023-04-22T09:08:08.963Z,1.20
2023-04-22T09:10:38.890Z,0.77
2023-04-22T09:13:08.718Z,1.63
2023-04-22T09:15:46.383Z,1.23
2023-04-22T09:18:18.798Z,0.98
2023-04-22T09:20:49.100Z,1.52
2023-04-22T09:23:25.153Z,0.82
2023-04-22T09:25:53.570Z,0.82
2023-04-22T09:28:21.883Z,1.02
2023-04-22T09:30:50.215Z,1.10
2023-04-22T09:33:18.531Z,1.00
2023-04-22T09:35:46.871Z,1.75
2023-04-22T09:38:15.170Z,1.00
2023-04-22T09:40:45.605Z,0.98
2023-04-22T09:43:14.181Z,0.90
2023-04-22T09:45:44.276Z,1.17
2023-04-22T09:48:14.370Z,0.70
2023-04-22T09:50:46.500Z,1.25
2023-04-22T09:53:21.245Z,0.80
2023-04-22T09:55:56.053Z,1.60
2023-04-22T09:58:25.860Z,1.00
2023-04-22T10:00:56.970Z,1.50
2023-04-22T10:03:25.410Z,1.13
2023-04-22T10:05:55.480Z,1.25
2023-04-22T10:08:23.743Z,1.42
2023-04-22T10:10:54.609Z,0.90
2023-04-22T10:13:23.243Z,0.93
2023-04-22T10:16:00.092Z,1.10
2023-04-22T10:18:30.080Z,1.25
2023-04-22T10:21:00.539Z,1.00
2023-04-22T10:23:34.092Z,1.00
2023-04-22T10:26:06.863Z,1.05
2023-04-22T10:28:35.255Z,1.02
2023-04-22T10:31:07.925Z,0.85
2023-04-22T10:33:40.223Z,1.13
2023-04-22T10:36:10.917Z,1.05
2023-04-22T10:38:40.365Z,0.95
2023-04-22T10:41:15.378Z,1.55
2023-04-22T10:43:45.616Z,1.05
2023-04-22T10:46:50.951Z,0.80
2023-04-22T10:49:21.836Z,1.05
2023-04-22T10:51:52.033Z,1.40
2023-04-22T10:55:02.619Z,0.80
2023-04-22T10:57:43.373Z,0.73
2023-04-22T11:00:28.038Z,0.60
2023-04-22T11:03:11.748Z,0.82
2023-04-22T11:05:40.814Z,1.05
2023-04-22T11:08:14.490Z,1.05
2023-04-22T11:10:44.968Z,0.70
2023-04-22T11:13:16.684Z,1.17
2023-04-22T11:15:47.031Z,0.98
2023-04-22T11:18:22.070Z,0.93
2023-04-22T11:20:51.196Z,1.05
2023-04-22T11:23:21.728Z,1.00
2023-04-22T11:25:55.167Z,0.95
2023-04-22T11:28:24.881Z,0.80
2023-04-22T11:30:53.395Z,1.60
2023-04-22T11:33:21.808Z,1.88
2023-04-22T11:35:51.790Z,1.17
2023-04-22T11:38:20.221Z,1.33
2023-04-22T11:40:49.000Z,0.88
2023-04-22T11:43:18.694Z,1.02
2023-04-22T11:45:48.668Z,0.90
2023-04-22T11:48:17.424Z,1.20
2023-04-22T11:50:45.892Z,0.60
2023-04-22T11:53:19.297Z,1.20
2023-04-22T11:55:51.025Z,1.08
2023-04-22T11:58:21.138Z,3.83
2023-04-22T12:00:53.301Z,4.93
2023-04-22T12:03:23.917Z,3.72
2023-04-22T12:05:54.650Z,1.48
2023-04-22T12:08:25.127Z,2.30
2023-04-22T12:10:54.752Z,1.20
2023-04-22T12:13:24.151Z,1.50
2023-04-22T12:15:56.949Z,1.88
2023-04-22T12:18:32.077Z,1.05
2023-04-22T12:21:09.461Z,2.72
2023-04-22T12:23:45.535Z,1.02
2023-04-22T12:26:14.329Z,1.95
2023-04-22T12:28:44.045Z,1.02
2023-04-22T12:31:14.466Z,1.20
2023-04-22T12:33:44.942Z,0.90
2023-04-22T12:36:13.783Z,1.02
2023-04-22T12:38:42.183Z,0.95
2023-04-22T12:41:10.682Z,1.10
2023-04-22T12:43:39.556Z,0.98
2023-04-22T12:46:08.876Z,0.88
2023-04-22T12:48:38.689Z,1.33
2023-04-22T12:51:07.712Z,1.00
2023-04-22T12:53:36.005Z,0.98
2023-04-22T12:56:04.679Z,1.10
2023-04-22T12:58:33.020Z,1.42
2023-04-22T13:01:01.260Z,1.20
2023-04-22T13:03:29.764Z,1.02
2023-04-22T13:05:59.694Z,1.65
2023-04-22T13:08:29.883Z,1.08
2023-04-22T13:10:59.334Z,1.58
2023-04-22T13:13:27.674Z,1.58
2023-04-22T13:15:56.752Z,1.30
2023-04-22T13:18:25.366Z,1.08
2023-04-22T13:20:57.063Z,0.90
2023-04-22T13:23:27.767Z,1.75
2023-04-22T13:25:56.277Z,1.50
2023-04-22T13:28:24.663Z,1.40
2023-04-22T13:30:53.121Z,1.45
2023-04-22T13:33:21.471Z,1.30
2023-04-22T13:35:49.857Z,1.25
2023-04-22T13:38:18.161Z,1.10
2023-04-22T13:40:48.209Z,1.67
2023-04-22T13:43:16.512Z,1.83
2023-04-22T13:45:44.935Z,1.75
2023-04-22T13:48:13.275Z,1.50
2023-04-22T13:50:42.846Z,2.00
2023-04-22T13:53:11.880Z,2.08
2023-04-22T13:55:40.855Z,2.47
2023-04-22T13:58:10.750Z,1.88
2023-04-22T14:00:39.214Z,1.83
2023-04-22T14:03:07.917Z,1.67
2023-04-22T14:05:37.054Z,2.38
2023-04-22T14:08:05.348Z,1.70
2023-04-22T14:10:33.620Z,2.67
2023-04-22T14:13:01.955Z,2.40
2023-04-22T14:15:31.679Z,2.00
2023-04-22T14:18:00.064Z,1.73
2023-04-22T14:20:28.472Z,2.37
2023-04-22T14:22:56.777Z,2.00
2023-04-22T14:25:25.156Z,2.70
2023-04-22T14:27:53.429Z,2.30
2023-04-22T14:30:22.030Z,2.30
2023-04-22T14:32:51.971Z,2.40
2023-04-22T14:35:20.689Z,1.87
2023-04-22T14:37:49.491Z,2.37
2023-04-22T14:40:17.804Z,2.37
2023-04-22T14:42:46.258Z,2.00
2023-04-22T14:45:15.789Z,1.87
2023-04-22T14:47:44.102Z,2.00
2023-04-22T14:50:14.058Z,2.43
2023-04-22T14:52:42.415Z,1.53
2023-04-22T14:55:22.042Z,1.77
2023-04-22T14:57:53.294Z,1.10
2023-04-22T15:00:21.835Z,1.50
2023-04-22T15:02:51.039Z,1.73
2023-04-22T15:05:22.377Z,2.13
2023-04-22T15:07:50.842Z,2.10
2023-04-22T15:10:19.429Z,2.53
2023-04-22T15:12:47.875Z,1.67
2023-04-22T15:15:17.966Z,1.27
2023-04-22T15:17:46.981Z,1.10
2023-04-22T15:20:15.777Z,1.87
2023-04-22T15:22:46.009Z,1.70
2023-04-22T15:25:16.024Z,1.47
2023-04-22T15:27:46.145Z,1.57
2023-04-22T15:30:14.703Z,1.43
2023-04-22T15:32:43.674Z,1.37
2023-04-22T15:35:12.202Z,1.43
2023-04-22T15:37:41.047Z,1.80
2023-04-22T15:40:11.359Z,1.30
2023-04-22T15:42:39.789Z,1.07
2023-04-22T15:45:14.889Z,1.30
2023-04-22T15:47:43.293Z,1.57
2023-04-22T15:50:15.336Z,1.30
2023-04-22T15:52:43.632Z,2.33
2023-04-22T15:55:13.526Z,1.23
2023-04-22T15:57:41.852Z,1.40
2023-04-22T16:00:13.665Z,1.27
2023-04-22T16:02:46.581Z,1.90
2023-04-22T16:05:15.187Z,1.20
2023-04-22T16:07:43.476Z,1.97
2023-04-22T16:10:14.604Z,1.77
2023-04-22T16:12:43.694Z,1.90
2023-04-22T16:15:18.053Z,1.90
2023-04-22T16:17:46.492Z,1.10
2023-04-22T16:20:14.812Z,1.80
2023-04-22T16:22:43.321Z,1.90
2023-04-22T16:25:13.019Z,1.37
2023-04-22T16:27:41.974Z,1.63
2023-04-22T16:30:11.007Z,1.43
2023-04-22T16:32:39.468Z,1.63
2023-04-22T16:35:09.255Z,1.47
2023-04-22T16:37:37.656Z,2.00
2023-04-22T16:40:06.789Z,2.57
2023-04-22T16:42:36.480Z,2.97
2023-04-22T16:45:05.190Z,1.97
2023-04-22T16:47:33.637Z,2.17
2023-04-22T16:50:03.913Z,2.33
2023-04-22T16:52:32.226Z,2.23
2023-04-22T16:55:00.552Z,2.00
2023-04-22T16:57:28.859Z,2.50
2023-04-22T16:59:58.613Z,2.73
2023-04-22T17:02:27.453Z,2.70
2023-04-22T17:04:55.769Z,3.77
2023-04-22T17:07:24.090Z,6.53
2023-04-22T17:09:52.398Z,9.90
2023-04-22T17:12:20.935Z,9.10
2023-04-22T17:14:49.153Z,10.37
2023-04-22T17:17:18.935Z,9.87
2023-04-22T17:19:47.311Z,11.57
2023-04-22T17:22:15.830Z,10.73
2023-04-22T17:24:44.309Z,10.83
2023-04-22T17:27:15.075Z,9.23
2023-04-22T17:29:45.235Z,8.53
2023-04-22T17:32:13.595Z,7.83
2023-04-22T17:37:33.792Z,7.33
2023-04-22T17:40:02.967Z,7.13
2023-04-22T17:42:44.682Z,7.00
2023-04-22T17:45:16.937Z,7.73
2023-04-22T17:47:45.260Z,8.40
2023-04-22T17:50:15.649Z,7.23
2023-04-22T17:52:49.619Z,9.10
2023-04-22T17:55:18.103Z,8.17
2023-04-22T17:57:46.498Z,9.50
2023-04-22T18:00:16.968Z,8.47
2023-04-22T18:02:45.688Z,8.87
2023-04-22T18:05:14.187Z,9.30
2023-04-22T18:07:42.543Z,8.63
2023-04-22T18:10:13.284Z,7.80
2023-04-22T18:12:41.858Z,10.17
2023-04-22T18:15:10.557Z,10.30
2023-04-22T18:17:38.936Z,9.17
2023-04-22T18:20:18.691Z,10.87
2023-04-22T18:22:48.674Z,9.07
2023-04-22T18:25:21.321Z,9.53
2023-04-22T18:27:50.715Z,10.27
2023-04-22T18:30:19.123Z,12.23
2023-04-22T18:32:48.200Z,9.60
2023-04-22T18:35:21.362Z,9.70
2023-04-22T18:37:51.782Z,8.10
2023-04-22T18:40:22.551Z,10.37
2023-04-22T18:42:51.009Z,8.87
2023-04-22T18:45:19.372Z,9.23
2023-04-22T18:47:47.685Z,8.53
2023-04-22T18:50:16.534Z,8.93
2023-04-22T18:52:45.133Z,7.73
2023-04-22T18:55:13.657Z,10.33
2023-04-22T18:57:45.130Z,7.77
2023-04-22T19:00:14.453Z,7.07
2023-04-22T19:02:43.990Z,6.50
2023-04-22T19:05:18.038Z,7.60
2023-04-22T19:07:46.344Z,7.83
2023-04-22T19:10:14.818Z,8.17
2023-04-22T19:12:47.655Z,10.03
2023-04-22T19:15:17.279Z,6.90
2023-04-22T19:17:45.670Z,7.33
2023-04-22T19:20:14.044Z,5.93
2023-04-22T19:22:43.729Z,5.07
2023-04-22T19:25:12.409Z,5.57
2023-04-22T19:27:40.815Z,5.43
2023-04-22T19:30:12.028Z,5.20
2023-04-22T19:32:40.590Z,4.40
2023-04-22T19:35:12.520Z,4.57
2023-04-22T19:37:40.842Z,3.67
2023-04-22T19:40:10.143Z,4.20
2023-04-22T19:42:38.450Z,4.47
2023-04-22T19:45:09.210Z,5.10
2023-04-22T19:47:39.921Z,5.03
2023-04-22T19:50:09.634Z,5.73
2023-04-22T19:52:38.054Z,5.60
2023-04-22T19:55:09.309Z,6.53
2023-04-22T19:57:38.831Z,5.80
2023-04-22T20:00:08.547Z,5.43
2023-04-22T20:02:38.856Z,5.60
2023-04-22T20:05:08.770Z,5.93
2023-04-22T20:07:38.177Z,5.93
2023-04-22T20:10:09.867Z,4.40
2023-04-22T20:12:38.417Z,5.50
2023-04-22T20:15:08.721Z,5.47
2023-04-22T20:17:39.594Z,5.47
2023-04-22T20:20:13.158Z,3.77
2023-04-22T20:22:42.602Z,3.60
2023-04-22T20:25:14.926Z,4.47
2023-04-22T20:27:44.146Z,4.40
2023-04-22T20:30:14.615Z,5.43
2023-04-22T20:32:44.709Z,5.17
2023-04-22T20:35:16.639Z,4.67
2023-04-22T20:37:47.216Z,3.77
2023-04-22T20:40:16.112Z,4.30
2023-04-22T20:42:44.489Z,5.87
2023-04-22T20:45:15.744Z,5.07
2023-04-22T20:47:46.203Z,4.20
2023-04-22T20:50:16.047Z,4.77
2023-04-22T20:52:44.481Z,4.47
2023-04-22T20:55:12.804Z,5.63
2023-04-22T20:57:41.204Z,5.97
2023-04-22T21:00:11.427Z,4.57
2023-04-22T21:02:40.770Z,5.67
2023-04-22T21:05:12.348Z,7.63
2023-04-22T21:07:41.604Z,7.47
2023-04-22T21:10:11.412Z,10.60
2023-04-22T21:12:40.125Z,7.23
2023-04-22T21:15:09.972Z,9.17
2023-04-22T21:17:44.568Z,8.73
2023-04-22T21:20:14.742Z,7.53
2023-04-22T21:22:44.817Z,7.80
2023-04-22T21:25:22.064Z,7.33
2023-04-22T21:27:51.128Z,6.17
2023-04-22T21:30:20.543Z,5.30
2023-04-22T21:32:48.932Z,5.00
2023-04-22T21:35:18.711Z,4.63
2023-04-22T21:37:47.120Z,4.77
2023-04-22T21:40:15.441Z,4.03
2023-04-22T21:42:43.767Z,4.57
2023-04-22T21:45:12.905Z,4.23
2023-04-22T21:47:41.272Z,3.77
2023-04-22T21:50:10.259Z,3.33
2023-04-22T21:52:40.131Z,4.10
2023-04-22T21:55:09.023Z,4.57
2023-04-22T21:57:37.311Z,3.80
2023-04-22T22:00:08.212Z,3.73
2023-04-22T22:02:36.806Z,3.13
2023-04-22T22:05:06.087Z,4.17
2023-04-22T22:07:34.732Z,4.70
2023-04-22T22:10:04.710Z,3.67
2023-04-22T22:12:33.034Z,4.00
2023-04-22T22:15:01.326Z,3.63
2023-04-22T22:17:30.080Z,4.57
2023-04-22T22:19:58.534Z,3.67
2023-04-22T22:22:27.063Z,3.30
2023-04-22T22:24:55.358Z,3.67
2023-04-22T22:27:25.431Z,3.27
2023-04-22T22:29:53.775Z,2.87
2023-04-22T22:32:22.481Z,3.83
2023-04-22T22:34:50.846Z,3.73
2023-04-22T22:37:19.197Z,3.57
2023-04-22T22:39:47.595Z,6.20
2023-04-22T22:42:15.862Z,4.33
2023-04-22T22:44:45.599Z,4.70
2023-04-22T22:47:14.053Z,3.77
2023-04-22T22:49:42.909Z,3.47
2023-04-22T22:52:11.898Z,3.37
2023-04-22T22:54:41.556Z,4.23
2023-04-22T22:57:11.792Z,3.43
2023-04-22T22:59:40.031Z,3.77
2023-04-22T23:02:09.930Z,4.00
2023-04-22T23:04:39.485Z,3.63
2023-04-22T23:07:08.035Z,3.57
2023-04-22T23:09:36.391Z,3.57
2023-04-22T23:12:05.504Z,3.50
2023-04-22T23:14:33.931Z,3.57
2023-04-22T23:17:02.814Z,3.40
2023-04-22T23:19:34.408Z,3.43
2023-04-22T23:22:03.066Z,4.07
2023-04-22T23:24:31.967Z,3.10
2023-04-22T23:27:01.347Z,3.80
2023-04-22T23:29:30.978Z,3.40
2023-04-22T23:32:03.674Z,3.40
2023-04-22T23:34:35.249Z,3.27
2023-04-22T23:37:06.590Z,3.70
2023-04-22T23:39:34.942Z,3.53
2023-04-22T23:42:03.228Z,2.90
2023-04-22T23:44:31.529Z,3.17
2023-04-22T23:47:00.053Z,3.70
2023-04-22T23:49:28.972Z,3.20
2023-04-22T23:51:58.691Z,2.93
2023-04-22T23:54:27.408Z,3.63
2023-04-22T23:56:56.320Z,3.57
2023-04-22T23:59:33.188Z,2.63
